Terminal Aerodrome Forecast
Issued by NWS Detroit/Pontiac, MI

Home | Current Version | Previous Version | Text Only | Print | Product List | Glossary On
Versions: 1 2 3 4 5 6 7 8 9 10 11 12 13 14 15 16 17 18 19 20 21 22 23 24 25 26 27 28 29 30
000
FTUS43 KDTX 282100 AAA
TAFDTW
TAF AMD
KDTW 282111Z 2821/2924 33010KT P6SM SCT035 OVC060
     FM282300 34008KT P6SM SCT050
     FM290600 29004KT P6SM SCT050 BKN120 OVC250
     FM291400 28010KT P6SM BKN060 BKN120 OVC250
     FM291800 28012G16KT P6SM VCSH BKN040=

USA.gov is the U.S. government's official web portal to all federal, state and local government web resources and services.